Time;durP1;ratioP1;P1;durP2;ratioP2;P2;SDS_P1;SDS_P2;PMS_P1;PMS_P2;Temp;Humidity;BMP_temperature;BMP_pressure;BME280_temperature;BME280_humidity;BME280_pressure;Samples;Min_cycle;Max_cycle;Signal;HPM_P1;HPM_P2
2022/10/09 00:00:36;;;;;;;2.85;2.00;;;8.90;99.90;;;;;;5057495;28;20040;-76
2022/10/09 00:03:01;;;;;;;4.05;2.10;;;8.90;99.90;;;;;;5046495;28;20071;-75
2022/10/09 00:05:27;;;;;;;4.47;1.95;;;8.90;99.90;;;;;;5039575;28;20045;-75
2022/10/09 00:07:53;;;;;;;4.28;2.38;;;8.90;99.90;;;;;;5058195;28;20123;-76
2022/10/09 00:10:19;;;;;;;4.82;1.92;;;8.90;99.90;;;;;;5058038;28;20040;-75
2022/10/09 00:12:46;;;;;;;3.42;1.98;;;8.90;99.90;;;;;;5057187;28;20044;-76
2022/10/09 00:15:11;;;;;;;2.75;1.98;;;8.90;99.90;;;;;;5057321;28;20044;-75
2022/10/09 00:17:37;;;;;;;5.50;2.42;;;8.80;99.90;;;;;;5045417;28;20105;-75
2022/10/09 00:20:03;;;;;;;5.40;2.00;;;8.90;99.90;;;;;;5050773;28;20087;-75
2022/10/09 00:22:29;;;;;;;4.93;2.20;;;8.80;99.90;;;;;;5045964;28;20387;-75
2022/10/09 00:24:55;;;;;;;5.53;2.08;;;8.80;99.90;;;;;;5054744;28;20052;-75
2022/10/09 00:27:22;;;;;;;6.38;2.42;;;8.70;99.90;;;;;;5057862;28;20048;-75
2022/10/09 00:29:48;;;;;;;3.95;3.55;;;8.70;99.90;;;;;;5056326;28;20048;-75
2022/10/09 00:32:14;;;;;;;4.47;2.10;;;8.70;99.90;;;;;;5051580;28;20131;-75
2022/10/09 00:34:40;;;;;;;5.90;2.13;;;8.70;99.90;;;;;;5055966;28;20044;-75
2022/10/09 00:37:06;;;;;;;3.20;2.10;;;8.70;99.90;;;;;;5054281;28;20527;-75
2022/10/09 00:39:31;;;;;;;7.13;2.38;;;8.50;99.90;;;;;;5057860;28;20068;-75
2022/10/09 00:41:57;;;;;;;5.07;2.28;;;8.60;99.90;;;;;;5053714;28;20056;-75
2022/10/09 00:44:46;;;;;;;5.20;3.67;;;8.60;99.90;;;;;;5050721;28;20459;-75
2022/10/09 00:47:43;;;;;;;5.75;2.47;;;8.60;99.90;;;;;;5051823;28;20490;-75
2022/10/09 00:50:19;;;;;;;4.43;2.30;;;8.60;99.90;;;;;;5049652;28;20498;-75
2022/10/09 00:52:45;;;;;;;6.03;2.45;;;8.60;99.90;;;;;;5045610;28;20057;-75
2022/10/09 00:55:13;;;;;;;3.50;2.40;;;8.50;99.90;;;;;;5056796;28;20045;-75
2022/10/09 00:57:40;;;;;;;3.88;2.63;;;8.50;99.90;;;;;;5050832;28;20045;-75
2022/10/09 01:00:09;;;;;;;4.20;2.15;;;8.50;99.90;;;;;;5048406;28;20053;-75
2022/10/09 01:02:35;;;;;;;4.53;2.60;;;8.50;99.90;;;;;;5053134;28;20049;-75
2022/10/09 01:05:01;;;;;;;7.78;2.95;;;8.50;99.90;;;;;;5051269;28;20105;-75
2022/10/09 01:07:43;;;;;;;4.93;2.75;;;8.50;99.90;;;;;;5040494;28;21179;-75
2022/10/09 01:10:18;;;;;;;4.10;2.20;;;8.50;99.90;;;;;;5054278;28;20037;-75
2022/10/09 01:12:49;;;;;;;9.07;2.95;;;8.40;99.90;;;;;;5057176;28;20044;-75
2022/10/09 01:15:34;;;;;;;4.80;2.55;;;8.40;99.90;;;;;;5054610;28;20661;-75
2022/10/09 01:18:06;;;;;;;4.22;2.78;;;8.30;99.90;;;;;;5053123;28;20048;-75
2022/10/09 01:20:50;;;;;;;5.35;2.85;;;8.30;99.90;;;;;;5056186;28;20052;-75
2022/10/09 01:23:18;;;;;;;4.15;3.17;;;8.30;99.90;;;;;;5053170;28;20062;-75
2022/10/09 01:25:56;;;;;;;4.90;3.65;;;8.20;99.90;;;;;;5042173;28;20056;-75
2022/10/09 01:28:24;;;;;;;7.05;2.95;;;8.30;99.90;;;;;;5050218;28;20048;-75
2022/10/09 01:30:50;;;;;;;4.63;2.63;;;8.30;99.90;;;;;;5050499;28;20143;-75
2022/10/09 01:33:16;;;;;;;9.40;3.50;;;8.30;99.90;;;;;;5052333;28;20048;-75
2022/10/09 01:35:43;;;;;;;4.50;3.00;;;8.30;99.90;;;;;;5061595;28;20050;-75
2022/10/09 01:38:10;;;;;;;5.28;3.17;;;8.20;99.90;;;;;;5046376;28;20464;-74
2022/10/09 01:40:37;;;;;;;5.72;3.17;;;8.20;99.90;;;;;;5055904;28;20052;-75
2022/10/09 01:43:03;;;;;;;10.10;3.97;;;8.20;99.90;;;;;;5057990;28;20116;-75
2022/10/09 01:45:41;;;;;;;3.03;2.53;;;8.20;99.90;;;;;;5059903;28;20544;-76
2022/10/09 01:48:11;;;;;;;7.88;3.80;;;8.10;99.90;;;;;;5053573;28;20854;-75
2022/10/09 01:50:42;;;;;;;10.15;3.80;;;8.10;99.90;;;;;;5058370;28;20425;-75
2022/10/09 01:53:29;;;;;;;4.22;3.58;;;8.10;99.90;;;;;;5051467;28;20071;-74
2022/10/09 01:56:02;;;;;;;5.45;4.35;;;8.10;99.90;;;;;;5048960;28;20049;-75
2022/10/09 01:58:40;;;;;;;5.93;3.70;;;8.10;99.90;;;;;;5061542;28;20048;-75
2022/10/09 02:01:30;;;;;;;8.57;4.38;;;8.00;99.90;;;;;;5050094;28;20489;-76
2022/10/09 02:03:58;;;;;;;6.40;3.42;;;8.00;99.90;;;;;;5051333;28;20041;-76
2022/10/09 02:06:26;;;;;;;6.03;3.55;;;7.90;99.90;;;;;;5052544;28;20049;-76
2022/10/09 02:08:54;;;;;;;8.00;3.28;;;8.00;99.90;;;;;;5059260;28;20048;-76
2022/10/09 02:11:22;;;;;;;8.38;3.92;;;7.90;99.90;;;;;;5052566;28;20048;-76
2022/10/09 02:13:51;;;;;;;5.47;3.13;;;7.90;99.90;;;;;;5052841;28;20051;-76
2022/10/09 02:16:36;;;;;;;8.70;4.07;;;7.90;99.90;;;;;;5041091;28;20056;-76
2022/10/09 02:19:30;;;;;;;3.30;2.97;;;7.80;99.90;;;;;;5045343;28;20049;-76
2022/10/09 02:22:09;;;;;;;6.57;3.83;;;7.80;99.90;;;;;;5054430;28;20056;-80
2022/10/09 02:24:38;;;;;;;3.60;3.28;;;7.80;99.90;;;;;;5054384;28;20053;-81
2022/10/09 02:27:04;;;;;;;4.20;3.70;;;7.80;99.90;;;;;;5054201;28;20135;-81
2022/10/09 02:29:31;;;;;;;4.75;3.63;;;7.80;99.90;;;;;;5054184;28;20463;-81
2022/10/09 02:31:57;;;;;;;5.85;3.47;;;7.80;99.90;;;;;;5054588;28;20048;-80
2022/10/09 02:34:23;;;;;;;8.50;3.85;;;7.70;99.90;;;;;;5054109;28;20049;-81
2022/10/09 02:36:48;;;;;;;9.38;4.25;;;7.70;99.90;;;;;;5054158;28;20144;-80
2022/10/09 02:39:15;;;;;;;5.97;4.07;;;7.70;99.90;;;;;;5053157;28;20047;-80
2022/10/09 02:41:40;;;;;;;8.80;3.80;;;7.80;99.90;;;;;;5053843;28;20483;-80
2022/10/09 02:44:06;;;;;;;5.88;3.83;;;7.70;99.90;;;;;;5053692;28;20044;-81
2022/10/09 02:46:33;;;;;;;8.00;4.40;;;7.70;99.90;;;;;;5054150;28;20102;-81
2022/10/09 02:48:59;;;;;;;5.68;4.40;;;7.70;99.90;;;;;;5053553;28;20072;-81
2022/10/09 02:51:25;;;;;;;3.53;3.22;;;7.20;99.90;;;;;;5052348;28;20503;-80
2022/10/09 02:53:54;;;;;;;8.98;4.38;;;7.70;99.90;;;;;;5053660;28;20055;-81
2022/10/09 02:56:22;;;;;;;6.85;4.28;;;7.80;99.90;;;;;;5053874;28;20149;-81
2022/10/09 02:58:48;;;;;;;8.73;5.05;;;7.80;99.90;;;;;;5053693;28;20473;-81
2022/10/09 03:01:13;;;;;;;6.63;5.13;;;7.70;99.90;;;;;;5054174;28;20060;-81
2022/10/09 03:03:39;;;;;;;8.13;4.68;;;7.70;99.90;;;;;;5053968;28;20130;-81
2022/10/09 03:06:13;;;;;;;9.50;5.10;;;7.80;99.90;;;;;;5053678;28;20128;-81
2022/10/09 03:08:42;;;;;;;8.73;4.60;;;7.70;99.90;;;;;;5054124;28;20083;-81
2022/10/09 03:11:09;;;;;;;9.70;4.75;;;7.70;99.90;;;;;;5053533;28;20088;-80
2022/10/09 03:13:35;;;;;;;8.32;6.47;;;7.60;99.90;;;;;;5053369;28;20048;-80
2022/10/09 03:16:05;;;;;;;11.73;4.65;;;7.60;99.90;;;;;;5053749;28;20045;-80
2022/10/09 03:18:31;;;;;;;6.15;4.63;;;7.60;99.90;;;;;;5053752;28;20059;-81
2022/10/09 03:20:57;;;;;;;7.47;4.97;;;7.60;99.90;;;;;;5069590;28;20092;-81
2022/10/09 03:23:23;;;;;;;9.55;5.97;;;7.60;99.90;;;;;;5053581;28;20054;-81
2022/10/09 03:25:59;;;;;;;9.25;6.35;;;7.60;99.90;;;;;;5053543;28;20049;-81
2022/10/09 03:28:26;;;;;;;7.35;5.05;;;7.60;99.90;;;;;;5053239;28;20048;-80
2022/10/09 03:30:52;;;;;;;8.57;5.35;;;7.60;99.90;;;;;;5053144;28;20183;-81
2022/10/09 03:33:18;;;;;;;7.72;6.32;;;7.50;99.90;;;;;;5051855;28;20057;-80
2022/10/09 03:35:48;;;;;;;8.90;6.22;;;7.50;99.90;;;;;;5052967;28;20045;-81
2022/10/09 03:38:15;;;;;;;8.98;5.57;;;7.50;99.90;;;;;;5053022;28;20051;-81
2022/10/09 03:40:41;;;;;;;6.45;5.45;;;7.50;99.90;;;;;;5053369;28;20049;-80
2022/10/09 03:43:07;;;;;;;10.30;6.00;;;7.50;99.90;;;;;;5053311;28;20055;-81
2022/10/09 03:45:32;;;;;;;10.57;6.03;;;7.50;99.90;;;;;;5053549;28;20103;-81
2022/10/09 03:47:58;;;;;;;9.40;6.65;;;7.50;99.90;;;;;;5053268;28;20048;-81
2022/10/09 03:50:24;;;;;;;6.82;6.05;;;7.50;99.90;;;;;;5052336;28;20053;-81
2022/10/09 03:52:50;;;;;;;8.00;6.55;;;7.50;99.90;;;;;;5052672;28;20475;-83
2022/10/09 03:55:16;;;;;;;10.00;6.47;;;7.50;99.90;;;;;;5052607;28;20048;-82
2022/10/09 03:57:41;;;;;;;9.63;5.93;;;7.50;99.90;;;;;;5052647;28;20040;-81
2022/10/09 04:00:09;;;;;;;7.45;5.82;;;7.70;99.90;;;;;;5052916;28;20067;-81
2022/10/09 04:02:35;;;;;;;9.70;6.28;;;7.40;99.90;;;;;;5052576;28;20082;-81
2022/10/09 04:05:00;;;;;;;8.85;6.03;;;7.50;99.90;;;;;;5052514;28;20037;-81
2022/10/09 04:07:26;;;;;;;11.20;6.82;;;7.70;99.90;;;;;;5052553;28;20041;-82
2022/10/09 04:09:51;;;;;;;13.50;7.03;;;7.50;99.90;;;;;;5052509;28;20468;-81
2022/10/09 04:12:17;;;;;;;8.10;5.38;;;7.50;99.90;;;;;;5052557;28;20045;-82
2022/10/09 04:14:43;;;;;;;8.00;5.60;;;7.60;99.90;;;;;;5067992;28;20044;-82
2022/10/09 04:17:09;;;;;;;9.77;6.20;;;7.50;99.90;;;;;;5052761;28;20102;-81
2022/10/09 04:19:35;;;;;;;7.07;5.18;;;7.50;99.90;;;;;;5052718;28;20041;-81
2022/10/09 04:22:01;;;;;;;7.97;6.35;;;7.50;99.90;;;;;;5085332;28;20090;-81
2022/10/09 04:24:26;;;;;;;8.32;5.65;;;7.40;99.90;;;;;;5052405;28;20479;-81
2022/10/09 04:26:52;;;;;;;10.82;6.00;;;7.60;99.90;;;;;;5052188;28;20538;-82
2022/10/09 04:29:18;;;;;;;8.55;5.55;;;7.40;99.90;;;;;;5052231;28;20447;-81
2022/10/09 04:31:43;;;;;;;10.85;6.10;;;7.40;99.90;;;;;;5084244;28;20056;-81
2022/10/09 04:34:09;;;;;;;9.38;5.60;;;7.40;99.90;;;;;;5052639;28;20045;-80
2022/10/09 04:36:35;;;;;;;8.30;5.53;;;7.40;99.90;;;;;;5052242;28;20463;-82
2022/10/09 04:39:00;;;;;;;8.05;5.35;;;7.40;99.90;;;;;;5052114;28;20120;-81
2022/10/09 04:41:26;;;;;;;8.25;6.18;;;7.40;99.90;;;;;;5052163;28;20087;-82
2022/10/09 04:43:55;;;;;;;8.32;6.00;;;7.40;99.90;;;;;;5051727;28;20040;-81
2022/10/09 04:46:21;;;;;;;6.22;5.63;;;7.40;99.90;;;;;;5051797;28;20501;-81
2022/10/09 04:48:47;;;;;;;8.32;5.97;;;7.50;99.90;;;;;;5052164;28;20045;-83
2022/10/09 04:51:14;;;;;;;10.13;5.72;;;7.30;99.90;;;;;;5052463;28;20132;-82
2022/10/09 04:53:40;;;;;;;8.95;6.38;;;7.40;99.90;;;;;;5053228;28;20102;-82
2022/10/09 04:56:09;;;;;;;11.63;6.85;;;7.30;99.90;;;;;;5052985;28;20045;-81
2022/10/09 04:58:36;;;;;;;8.15;6.00;;;7.30;99.90;;;;;;5051268;28;20124;-80
2022/10/09 05:01:17;;;;;;;7.00;5.53;;;7.30;99.90;;;;;;5052656;28;20487;-81
2022/10/09 05:03:43;;;;;;;8.60;6.35;;;7.30;99.90;;;;;;5055820;28;20072;-82
2022/10/09 05:06:10;;;;;;;10.43;6.28;;;7.20;99.90;;;;;;5088131;28;20527;-81
2022/10/09 05:08:37;;;;;;;8.63;6.10;;;7.30;99.90;;;;;;5055726;28;20055;-83
2022/10/09 05:11:09;;;;;;;7.57;5.70;;;7.30;99.90;;;;;;5056039;28;20091;-81
2022/10/09 05:13:37;;;;;;;6.63;4.78;;;7.30;99.90;;;;;;5055942;28;20049;-81
2022/10/09 05:16:06;;;;;;;11.50;5.85;;;7.20;99.90;;;;;;5055287;28;20569;-82
2022/10/09 05:18:32;;;;;;;9.23;5.75;;;7.20;99.90;;;;;;5071255;28;20049;-81
2022/10/09 05:20:58;;;;;;;7.45;5.65;;;7.20;99.90;;;;;;5055622;28;20155;-82
2022/10/09 05:23:24;;;;;;;7.50;4.57;;;7.20;99.90;;;;;;5055515;28;20056;-82
2022/10/09 05:26:10;;;;;;;7.13;4.07;;;7.20;99.90;;;;;;5055457;28;20037;-81
2022/10/09 05:28:36;;;;;;;6.13;5.20;;;7.20;99.90;;;;;;5055533;28;20472;-83
2022/10/09 05:31:03;;;;;;;7.18;5.20;;;7.10;99.90;;;;;;5055582;28;20056;-81
2022/10/09 05:33:29;;;;;;;7.32;4.88;;;7.10;99.90;;;;;;5055246;28;20106;-81
2022/10/09 05:36:04;;;;;;;9.95;6.28;;;7.20;99.90;;;;;;5055654;28;20049;-81
2022/10/09 05:38:32;;;;;;;9.75;5.40;;;7.10;99.90;;;;;;5055643;28;20052;-82
2022/10/09 05:41:01;;;;;;;10.57;6.22;;;7.70;99.90;;;;;;5055284;28;20049;-81
2022/10/09 05:43:29;;;;;;;8.43;6.65;;;7.10;99.90;;;;;;5055352;28;20053;-81
2022/10/09 05:46:02;;;;;;;8.10;6.07;;;7.10;99.90;;;;;;5055240;28;20040;-82
2022/10/09 05:48:28;;;;;;;11.90;9.20;;;7.10;99.90;;;;;;5070912;28;20167;-79
2022/10/09 05:51:04;;;;;;;13.63;8.52;;;7.40;99.90;;;;;;5054612;28;20084;-79
2022/10/09 05:53:29;;;;;;;10.48;7.30;;;7.10;99.90;;;;;;5054172;28;20131;-79
2022/10/09 05:55:55;;;;;;;11.57;9.18;;;7.10;99.90;;;;;;5054775;28;20084;-81
2022/10/09 05:58:21;;;;;;;16.33;10.18;;;7.10;99.90;;;;;;5053626;28;20056;-79
2022/10/09 06:00:46;;;;;;;12.57;9.23;;;7.20;99.90;;;;;;5053700;28;20087;-79
2022/10/09 06:03:12;;;;;;;12.23;8.93;;;7.20;99.90;;;;;;5054622;28;20052;-79
2022/10/09 06:05:37;;;;;;;11.20;8.45;;;7.10;99.90;;;;;;5054880;28;20091;-79
2022/10/09 06:08:03;;;;;;;10.63;7.93;;;7.10;99.90;;;;;;5054812;28;20045;-80
2022/10/09 06:10:29;;;;;;;10.52;7.38;;;7.10;99.90;;;;;;5054537;28;20049;-80
2022/10/09 06:12:55;;;;;;;9.23;7.57;;;7.10;99.90;;;;;;5054367;28;20048;-80
2022/10/09 06:15:21;;;;;;;10.45;7.03;;;7.20;99.90;;;;;;5054823;28;20037;-80
2022/10/09 06:17:47;;;;;;;8.32;7.53;;;7.20;99.90;;;;;;5053024;28;20049;-80
2022/10/09 06:20:12;;;;;;;8.65;6.10;;;7.20;99.90;;;;;;5054337;28;20045;-80
2022/10/09 06:22:38;;;;;;;11.13;8.32;;;7.20;99.90;;;;;;5087345;28;20059;-81
2022/10/09 06:25:04;;;;;;;11.75;7.18;;;7.10;99.90;;;;;;5053926;28;20051;-79
2022/10/09 06:27:30;;;;;;;10.85;7.43;;;7.10;99.90;;;;;;5054104;28;20556;-79
2022/10/09 06:29:56;;;;;;;7.15;4.97;;;7.20;99.90;;;;;;5054868;28;20045;-80
2022/10/09 06:32:21;;;;;;;8.40;5.93;;;7.20;99.90;;;;;;5054267;28;20518;-79
2022/10/09 06:34:47;;;;;;;9.70;7.72;;;7.20;99.90;;;;;;5054531;28;20080;-81
2022/10/09 06:37:13;;;;;;;9.65;5.85;;;7.20;99.90;;;;;;5054278;28;20478;-80
2022/10/09 06:39:38;;;;;;;7.93;6.10;;;7.30;99.90;;;;;;5054283;28;20426;-80
2022/10/09 06:42:04;;;;;;;7.40;6.30;;;7.30;99.90;;;;;;5054151;28;20045;-80
2022/10/09 06:44:30;;;;;;;10.98;6.80;;;7.40;99.90;;;;;;5053921;28;20041;-79
2022/10/09 06:46:55;;;;;;;7.22;6.53;;;7.50;99.90;;;;;;5052850;28;20505;-80
2022/10/09 06:49:21;;;;;;;7.15;5.70;;;7.50;99.90;;;;;;5054204;28;20059;-80
2022/10/09 06:51:46;;;;;;;8.00;6.13;;;7.50;99.90;;;;;;5053641;28;20114;-80
2022/10/09 06:54:15;;;;;;;9.43;6.28;;;7.60;99.90;;;;;;5053717;28;20052;-79
2022/10/09 06:56:40;;;;;;;4.95;4.30;;;7.70;99.90;;;;;;5053496;28;20402;-79
2022/10/09 06:59:07;;;;;;;10.80;5.90;;;7.70;99.90;;;;;;5052663;28;20128;-79
2022/10/09 07:01:33;;;;;;;7.45;5.40;;;7.80;99.90;;;;;;5053524;28;20052;-80
2022/10/09 07:04:03;;;;;;;7.70;5.22;;;7.90;99.90;;;;;;5053490;28;20049;-79
2022/10/09 07:06:30;;;;;;;9.20;6.32;;;8.00;99.90;;;;;;5053443;28;20053;-80
2022/10/09 07:09:02;;;;;;;7.47;5.50;;;8.10;99.90;;;;;;5053265;28;20076;-80
2022/10/09 07:11:39;;;;;;;7.10;5.70;;;8.20;99.90;;;;;;5053670;28;20122;-80
2022/10/09 07:14:06;;;;;;;8.20;5.95;;;8.30;99.90;;;;;;5052338;28;20045;-80
2022/10/09 07:16:36;;;;;;;9.90;6.40;;;8.40;99.90;;;;;;5053713;28;20053;-80
2022/10/09 07:19:06;;;;;;;8.80;6.00;;;8.50;99.90;;;;;;5053246;28;20040;-80
2022/10/09 07:21:32;;;;;;;8.80;6.20;;;8.50;99.90;;;;;;5053454;28;20084;-80
2022/10/09 07:24:03;;;;;;;7.93;5.43;;;8.70;99.90;;;;;;5052347;28;20086;-79
2022/10/09 07:26:31;;;;;;;8.98;6.03;;;8.70;99.90;;;;;;5053426;28;20048;-80
2022/10/09 07:28:56;;;;;;;8.15;5.07;;;8.80;99.90;;;;;;5053121;28;20063;-79
2022/10/09 07:31:22;;;;;;;7.85;5.28;;;8.90;99.90;;;;;;5053374;28;20037;-81
2022/10/09 07:33:50;;;;;;;7.85;5.03;;;9.00;99.90;;;;;;5053343;28;20041;-80
2022/10/09 07:36:16;;;;;;;9.50;6.60;;;9.10;99.90;;;;;;5085791;28;20052;-80
2022/10/09 07:38:43;;;;;;;8.68;4.80;;;9.20;99.90;;;;;;5052869;28;20055;-80
2022/10/09 07:41:10;;;;;;;7.07;5.20;;;9.30;99.90;;;;;;5053086;28;20091;-79
2022/10/09 07:43:38;;;;;;;10.23;4.97;;;9.40;99.90;;;;;;5053616;28;20045;-79
2022/10/09 07:46:06;;;;;;;6.18;4.50;;;9.50;99.90;;;;;;5052644;28;20041;-79
2022/10/09 07:48:33;;;;;;;10.07;4.43;;;9.60;99.90;;;;;;5053160;28;20425;-79
2022/10/09 07:51:10;;;;;;;10.60;5.53;;;9.70;99.90;;;;;;5085882;28;20065;-79
2022/10/09 07:53:36;;;;;;;8.45;4.70;;;9.70;99.90;;;;;;5053043;28;20056;-79
2022/10/09 07:56:03;;;;;;;5.68;4.72;;;9.80;99.90;;;;;;5054279;28;20037;-78
2022/10/09 07:58:29;;;;;;;6.78;4.35;;;9.90;99.90;;;;;;5053807;28;20462;-80
2022/10/09 08:00:55;;;;;;;7.28;5.13;;;10.00;99.90;;;;;;5054006;28;20040;-79
2022/10/09 08:03:20;;;;;;;5.97;4.32;;;10.10;99.90;;;;;;5054078;28;20394;-78
2022/10/09 08:05:56;;;;;;;9.63;4.97;;;10.20;99.90;;;;;;5054248;28;20386;-79
2022/10/09 08:08:22;;;;;;;7.95;4.13;;;10.30;99.90;;;;;;5053784;28;20501;-78
2022/10/09 08:10:47;;;;;;;9.68;4.47;;;10.40;99.90;;;;;;5052299;28;20048;-78
2022/10/09 08:13:13;;;;;;;9.65;4.50;;;10.50;99.90;;;;;;5052125;28;20068;-79
2022/10/09 08:15:42;;;;;;;4.43;3.60;;;10.70;99.90;;;;;;5052120;28;20048;-71
2022/10/09 08:18:09;;;;;;;6.90;3.83;;;10.80;99.90;;;;;;5051673;28;20048;-71
2022/10/09 08:20:36;;;;;;;6.88;4.15;;;10.90;99.90;;;;;;5052199;28;20124;-73
2022/10/09 08:23:02;;;;;;;6.22;4.25;;;11.00;99.90;;;;;;5052317;28;20045;-78
2022/10/09 08:25:28;;;;;;;6.32;4.03;;;11.20;99.90;;;;;;5052263;28;20115;-79
2022/10/09 08:27:54;;;;;;;6.35;4.25;;;11.20;99.90;;;;;;5052063;28;20052;-79
2022/10/09 08:30:20;;;;;;;6.18;3.92;;;11.40;99.90;;;;;;5052207;28;20056;-80
2022/10/09 08:32:46;;;;;;;7.10;3.88;;;11.40;99.90;;;;;;5051269;28;20447;-77
2022/10/09 08:35:11;;;;;;;8.63;4.53;;;11.60;99.90;;;;;;5053157;28;20445;-78
2022/10/09 08:37:38;;;;;;;8.50;4.25;;;11.70;99.90;;;;;;5056435;28;20367;-79
2022/10/09 08:40:05;;;;;;;5.30;3.70;;;11.80;99.90;;;;;;5056749;28;20044;-79
2022/10/09 08:42:48;;;;;;;5.43;3.60;;;12.10;99.90;;;;;;5055930;28;20129;-80
2022/10/09 08:45:16;;;;;;;5.80;3.80;;;12.30;99.90;;;;;;5056561;28;20182;-79
2022/10/09 08:48:04;;;;;;;8.32;4.18;;;12.50;99.90;;;;;;5056297;28;20053;-78
2022/10/09 08:50:36;;;;;;;6.40;3.60;;;12.70;99.90;;;;;;5055961;28;20520;-78
2022/10/09 08:53:27;;;;;;;4.93;3.63;;;12.90;99.90;;;;;;5055825;28;20498;-79
2022/10/09 08:55:57;;;;;;;5.20;3.13;;;13.20;99.90;;;;;;5055740;28;20033;-79
2022/10/09 08:58:33;;;;;;;3.28;2.95;;;13.30;99.90;;;;;;5055886;28;20045;-79
2022/10/09 09:01:16;;;;;;;6.45;3.25;;;13.40;99.90;;;;;;5088620;28;20501;-79
2022/10/09 09:04:11;;;;;;;8.05;3.17;;;13.60;99.90;;;;;;5056348;28;20057;-79
2022/10/09 09:06:50;;;;;;;5.03;3.25;;;14.00;99.90;;;;;;5049027;28;20057;-79
2022/10/09 09:09:28;;;;;;;6.93;3.55;;;14.80;99.90;;;;;;5055199;28;20395;-78
2022/10/09 09:12:33;;;;;;;5.85;2.72;;;16.00;99.90;;;;;;5055887;28;20053;-78
2022/10/09 09:15:24;;;;;;;3.03;2.50;;;17.20;99.90;;;;;;5055690;28;20041;-78
2022/10/09 09:17:58;;;;;;;5.40;2.40;;;18.50;99.90;;;;;;5055882;28;20052;-78
2022/10/09 09:20:37;;;;;;;5.43;2.35;;;19.60;99.90;;;;;;5056600;28;20045;-80
2022/10/09 09:23:12;;;;;;;3.58;2.30;;;20.40;99.80;;;;;;5055775;28;20116;-79
2022/10/09 09:25:40;;;;;;;5.65;2.47;;;20.80;99.90;;;;;;5055916;28;20103;-78
2022/10/09 09:28:25;;;;;;;7.60;2.60;;;21.00;99.20;;;;;;5055071;28;20444;-78
2022/10/09 09:30:59;;;;;;;5.80;2.80;;;21.00;96.80;;;;;;5055317;28;20403;-77
2022/10/09 09:33:42;;;;;;;4.57;2.60;;;21.30;96.90;;;;;;5055492;28;20127;-74
2022/10/09 09:36:16;;;;;;;2.83;2.33;;;21.70;95.40;;;;;;5055685;28;20466;-79
2022/10/09 09:38:42;;;;;;;4.78;2.50;;;21.80;97.60;;;;;;5054915;28;20431;-74
2022/10/09 09:41:08;;;;;;;10.88;3.28;;;22.00;97.10;;;;;;5055464;28;20123;-73
2022/10/09 09:43:34;;;;;;;4.50;2.22;;;22.30;96.40;;;;;;5055713;28;20090;-74
2022/10/09 09:46:00;;;;;;;3.85;2.17;;;22.70;95.70;;;;;;5055828;28;20433;-75
2022/10/09 09:48:40;;;;;;;8.27;3.42;;;22.70;95.00;;;;;;5054745;28;20052;-81
2022/10/09 09:51:15;;;;;;;6.53;2.55;;;22.90;94.40;;;;;;5055207;28;20056;-80
2022/10/09 09:53:44;;;;;;;2.85;2.33;;;23.30;92.70;;;;;;5055324;28;20045;-80
2022/10/09 09:56:10;;;;;;;5.72;2.35;;;23.00;93.50;;;;;;5054759;28;20142;-77
2022/10/09 09:58:42;;;;;;;4.80;2.60;;;23.30;92.00;;;;;;5054691;28;20438;-77
2022/10/09 10:01:25;;;;;;;3.05;2.05;;;23.60;91.70;;;;;;5055170;28;20060;-79
2022/10/09 10:03:56;;;;;;;3.72;2.13;;;23.60;91.40;;;;;;5054738;28;20049;-80
2022/10/09 10:06:34;;;;;;;6.82;2.80;;;23.40;91.70;;;;;;5054990;28;20073;-79
2022/10/09 10:09:18;;;;;;;5.13;2.08;;;23.60;90.10;;;;;;5054624;28;20048;-80
2022/10/09 10:11:50;;;;;;;3.05;2.22;;;23.60;90.40;;;;;;5054517;28;20041;-79
2022/10/09 10:14:16;;;;;;;2.85;2.08;;;24.00;90.90;;;;;;5054513;28;20130;-80
2022/10/09 10:16:42;;;;;;;4.72;2.10;;;24.30;90.20;;;;;;5054806;28;20059;-77
2022/10/09 10:19:27;;;;;;;6.10;2.35;;;24.00;89.60;;;;;;5054421;28;20102;-82
2022/10/09 10:22:01;;;;;;;5.47;2.17;;;23.60;85.70;;;;;;5053891;28;20048;-80
2022/10/09 10:24:32;;;;;;;6.68;2.55;;;23.10;88.70;;;;;;5054367;28;20067;-79
2022/10/09 10:27:13;;;;;;;3.03;1.80;;;22.90;90.00;;;;;;5054347;28;20041;-78
2022/10/09 10:29:44;;;;;;;4.72;2.03;;;22.60;86.20;;;;;;5054496;28;20084;-80
2022/10/09 10:32:15;;;;;;;6.60;2.08;;;21.60;90.70;;;;;;5054174;28;20095;-79
2022/10/09 10:34:59;;;;;;;8.88;2.33;;;20.30;91.90;;;;;;5054277;28;20047;-79
2022/10/09 10:37:40;;;;;;;5.22;1.85;;;19.20;93.20;;;;;;5054027;28;20060;-79
2022/10/09 10:40:35;;;;;;;4.50;2.42;;;18.40;92.90;;;;;;5053866;28;20064;-80
2022/10/09 10:43:05;;;;;;;6.00;2.40;;;17.90;94.80;;;;;;5047306;28;20048;-78
2022/10/09 10:45:53;;;;;;;5.55;2.42;;;17.30;96.00;;;;;;5053899;28;20037;-79
2022/10/09 10:48:31;;;;;;;5.50;2.80;;;17.10;96.60;;;;;;5053962;28;20060;-78
2022/10/09 10:51:12;;;;;;;3.22;1.90;;;16.60;97.80;;;;;;5053756;28;20067;-79
2022/10/09 10:54:07;;;;;;;7.53;2.60;;;16.60;97.80;;;;;;5053784;28;20053;-79
2022/10/09 10:56:50;;;;;;;6.38;2.53;;;16.50;98.10;;;;;;5052927;28;20053;-81
2022/10/09 10:59:23;;;;;;;8.35;2.30;;;16.30;98.80;;;;;;5052812;28;20041;-78
2022/10/09 11:02:16;;;;;;;4.90;2.35;;;16.30;98.90;;;;;;5053753;28;20044;-79
2022/10/09 11:04:50;;;;;;;2.50;1.98;;;16.20;98.70;;;;;;5054434;28;20081;-78
2022/10/09 11:07:35;;;;;;;5.25;1.80;;;16.20;99.00;;;;;;5053964;28;20052;-78
2022/10/09 11:10:11;;;;;;;8.18;2.35;;;16.00;98.90;;;;;;5054092;28;20044;-79
2022/10/09 11:12:59;;;;;;;4.70;2.33;;;16.10;99.20;;;;;;5053957;28;20053;-79
2022/10/09 11:16:02;;;;;;;3.60;1.65;;;16.20;99.10;;;;;;5053890;28;20048;-78
2022/10/09 11:18:52;;;;;;;2.50;1.67;;;16.20;99.10;;;;;;5053903;28;20045;-77
2022/10/09 11:21:21;;;;;;;5.38;1.92;;;16.30;98.10;;;;;;5053397;28;20076;-78
2022/10/09 11:24:25;;;;;;;8.48;1.95;;;16.30;98.00;;;;;;5052961;28;20578;-78
2022/10/09 11:27:12;;;;;;;10.63;1.88;;;16.30;98.20;;;;;;5053042;28;20045;-79
2022/10/09 11:30:03;;;;;;;3.60;1.60;;;16.30;98.30;;;;;;5053120;28;20102;-80
2022/10/09 11:32:35;;;;;;;4.63;1.85;;;16.30;97.80;;;;;;5046071;28;20060;-78
2022/10/09 11:35:05;;;;;;;5.18;1.77;;;16.20;98.10;;;;;;5053233;28;20145;-80
2022/10/09 11:37:37;;;;;;;3.53;1.80;;;16.20;98.30;;;;;;5053062;28;20131;-79
2022/10/09 11:40:17;;;;;;;2.00;1.50;;;16.10;98.80;;;;;;5053177;28;20171;-80
2022/10/09 11:42:47;;;;;;;6.93;2.20;;;16.20;98.30;;;;;;5053116;28;20120;-80
2022/10/09 11:45:28;;;;;;;5.95;1.92;;;16.30;98.40;;;;;;5053365;28;20049;-79
2022/10/09 11:48:05;;;;;;;3.33;1.63;;;16.30;97.30;;;;;;5053614;28;20041;-80
2022/10/09 11:50:47;;;;;;;3.17;1.83;;;16.30;97.30;;;;;;5053656;28;20493;-79
2022/10/09 11:53:23;;;;;;;4.50;2.35;;;16.30;97.00;;;;;;5053560;28;20049;-82
2022/10/09 11:56:20;;;;;;;5.40;1.80;;;16.30;96.80;;;;;;5053122;28;20138;-78
2022/10/09 11:59:00;;;;;;;5.80;1.92;;;16.30;96.30;;;;;;5052397;28;20049;-78
2022/10/09 12:01:32;;;;;;;4.07;1.75;;;16.30;96.10;;;;;;5052486;28;20092;-78
2022/10/09 12:04:05;;;;;;;4.75;1.83;;;16.30;96.00;;;;;;5052643;28;20063;-82
2022/10/09 12:06:43;;;;;;;7.38;2.60;;;16.20;95.70;;;;;;5052243;28;20056;-82
2022/10/09 12:09:09;;;;;;;3.00;1.73;;;16.30;96.00;;;;;;5052090;28;20128;-79
2022/10/09 12:11:35;;;;;;;3.80;1.90;;;16.20;95.80;;;;;;5052426;28;20483;-78
2022/10/09 12:14:03;;;;;;;2.65;2.28;;;16.20;96.00;;;;;;5052944;28;20092;-79
2022/10/09 12:16:36;;;;;;;2.67;1.73;;;16.20;95.70;;;;;;5053174;28;20041;-80
2022/10/09 12:19:22;;;;;;;6.78;2.47;;;16.30;96.20;;;;;;5054547;28;20053;-79
2022/10/09 12:22:02;;;;;;;2.42;1.52;;;16.40;96.70;;;;;;5051990;28;20443;-75
2022/10/09 12:24:38;;;;;;;4.75;1.80;;;16.50;96.70;;;;;;5052460;28;20052;-75
2022/10/09 12:27:05;;;;;;;4.05;2.17;;;16.60;96.50;;;;;;5052558;28;20040;-79
2022/10/09 12:29:43;;;;;;;6.80;1.83;;;16.60;96.70;;;;;;5052488;28;20140;-79
2022/10/09 12:32:24;;;;;;;3.58;1.73;;;16.70;96.50;;;;;;5052288;28;20467;-79
2022/10/09 12:34:51;;;;;;;4.03;1.98;;;16.70;95.60;;;;;;5051921;28;20044;-79
2022/10/09 12:37:20;;;;;;;4.22;2.25;;;16.80;95.00;;;;;;5051944;28;20124;-79
2022/10/09 12:39:47;;;;;;;5.18;2.40;;;16.60;94.40;;;;;;5052051;28;20049;-79
2022/10/09 12:42:22;;;;;;;4.03;1.80;;;16.60;94.90;;;;;;5052124;28;20049;-79
2022/10/09 12:44:51;;;;;;;8.52;2.00;;;16.70;95.10;;;;;;5052369;28;20060;-80
2022/10/09 12:47:25;;;;;;;6.45;2.65;;;16.70;94.60;;;;;;5052053;28;20458;-79
2022/10/09 12:50:13;;;;;;;6.88;2.40;;;16.70;94.60;;;;;;5051769;28;20048;-79
2022/10/09 12:52:51;;;;;;;5.53;2.60;;;16.70;94.90;;;;;;5084320;28;20048;-80
2022/10/09 12:55:33;;;;;;;4.47;2.15;;;16.80;94.90;;;;;;5052009;28;20045;-80
2022/10/09 12:58:07;;;;;;;5.38;2.92;;;16.90;94.00;;;;;;5051077;28;20091;-80
2022/10/09 13:00:34;;;;;;;5.57;2.10;;;16.90;94.40;;;;;;5051931;28;20045;-80
2022/10/09 13:03:00;;;;;;;4.30;2.10;;;17.00;94.10;;;;;;5051868;28;20585;-79
2022/10/09 13:05:40;;;;;;;5.25;2.40;;;17.00;94.20;;;;;;5051804;28;20068;-80
2022/10/09 13:08:28;;;;;;;8.25;2.55;;;17.00;93.50;;;;;;5051811;28;20049;-80
2022/10/09 13:11:06;;;;;;;4.82;2.25;;;17.00;94.30;;;;;;5052298;28;20094;-80
2022/10/09 13:13:31;;;;;;;4.22;2.63;;;17.00;93.90;;;;;;5052098;28;20056;-79